Sektagli, Russia
Current Conditions -  °F | °C
As of 11:00 PM on Thursday 30 Oct 2014 (Local Time) from UHBB Reporting Station
Clear Clear  
Wind Chill: -7°   Ceiling: Unl
Heat Index: -7°   Visibility: 6mi
Dew Point: -11°   Wind: 2mph
Humidity: 74%   Direction: 240°WSW
Pressure: 30.39"   Gusts: NA
Location:  50.42°N, 131°E
Report Text: UHBB 301300Z 24001MPS CAVOK M07/M11 Q1029 NOSIG RMK QFE754/100536090060
Loading
Personal Weather Stations






























Interactive Weather Map
Tropical Storm Tracking
New forecast layout! Learn more

10-Day Weather Forecast

Advertisements
Track Severe Weather on mobile